Time;durP1;ratioP1;P1;durP2;ratioP2;P2;SDS_P1;SDS_P2;PMS_P1;PMS_P2;Temp;Humidity;BMP_temperature;BMP_pressure;BME280_temperature;BME280_humidity;BME280_pressure;Samples;Min_cycle;Max_cycle;Signal;HPM_P1;HPM_P2
2023/04/15 00:01:04;;;;;;;8.98;4.60;;;;;;;;;;5044398;28;20617;-68
2023/04/15 00:03:30;;;;;;;9.17;4.60;;;;;;;;;;5035603;28;20481;-68
2023/04/15 00:05:57;;;;;;;8.43;5.23;;;;;;;;;;5047631;28;20594;-67
2023/04/15 00:08:22;;;;;;;7.95;4.70;;;;;;;;;;5038617;28;20191;-67
2023/04/15 00:10:48;;;;;;;15.02;4.65;;;;;;;;;;5045225;28;20189;-68
2023/04/15 00:13:14;;;;;;;12.43;5.22;;;;;;;;;;5044447;28;20277;-67
2023/04/15 00:15:39;;;;;;;10.27;5.70;;;;;;;;;;5047934;28;20664;-67
2023/04/15 00:18:06;;;;;;;9.50;5.05;;;;;;;;;;5049032;28;20177;-67
2023/04/15 00:20:33;;;;;;;8.70;5.10;;;;;;;;;;5041008;28;20206;-67
2023/04/15 00:22:59;;;;;;;11.43;5.70;;;;;;;;;;5036036;28;20212;-67
2023/04/15 00:25:24;;;;;;;12.18;5.28;;;;;;;;;;5041248;28;20589;-67
2023/04/15 00:27:50;;;;;;;9.82;5.53;;;;;;;;;;5028196;28;20271;-67
2023/04/15 00:30:15;;;;;;;12.05;5.82;;;;;;;;;;5033663;28;20663;-67
2023/04/15 00:32:41;;;;;;;14.38;6.72;;;;;;;;;;5047302;28;20181;-66
2023/04/15 00:35:07;;;;;;;10.80;5.97;;;;;;;;;;5042880;28;20498;-67
2023/04/15 00:37:34;;;;;;;7.38;5.22;;;;;;;;;;5041110;28;20204;-67
2023/04/15 00:39:59;;;;;;;9.23;5.43;;;;;;;;;;5038192;28;20235;-67
2023/04/15 00:42:25;;;;;;;9.50;5.40;;;;;;;;;;5042440;28;20217;-67
2023/04/15 00:44:50;;;;;;;10.88;5.90;;;;;;;;;;5046117;28;20296;-67
2023/04/15 00:47:17;;;;;;;8.57;5.35;;;;;;;;;;5036966;28;20712;-67
2023/04/15 00:49:43;;;;;;;12.85;5.90;;;;;;;;;;5036615;28;20225;-67
2023/04/15 00:52:08;;;;;;;7.40;5.13;;;;;;;;;;5032873;28;20212;-68
2023/04/15 00:54:34;;;;;;;9.90;6.07;;;;;;;;;;5045575;28;20185;-68
2023/04/15 00:57:00;;;;;;;9.73;5.80;;;;;;;;;;5044032;28;20621;-68
2023/04/15 00:59:26;;;;;;;10.23;5.43;;;;;;;;;;5036155;28;20193;-67
2023/04/15 01:01:52;;;;;;;11.85;6.30;;;;;;;;;;5042841;28;20252;-67
2023/04/15 01:04:17;;;;;;;12.32;6.03;;;;;;;;;;5046392;28;20372;-67
2023/04/15 01:06:42;;;;;;;10.57;6.00;;;;;;;;;;5032794;28;20193;-68
2023/04/15 01:09:08;;;;;;;10.75;6.10;;;;;;;;;;5046037;28;20604;-68
2023/04/15 01:11:34;;;;;;;12.30;6.78;;;;;;;;;;5042720;28;20174;-67
2023/04/15 01:14:00;;;;;;;13.63;6.38;;;;;;;;;;5042421;28;20181;-67
2023/04/15 01:16:27;;;;;;;8.67;5.70;;;;;;;;;;5042125;28;20196;-67
2023/04/15 01:18:53;;;;;;;10.70;6.20;;;;;;;;;;5044698;28;20499;-67
2023/04/15 01:21:18;;;;;;;10.85;6.35;;;;;;;;;;5035862;28;20206;-67
2023/04/15 01:23:46;;;;;;;11.40;6.13;;;;;;;;;;5038109;28;20190;-68
2023/04/15 01:26:12;;;;;;;11.63;6.07;;;;;;;;;;5043565;28;20247;-67
2023/04/15 01:28:37;;;;;;;10.10;6.20;;;;;;;;;;5045818;28;20242;-68
2023/04/15 01:31:12;;;;;;;9.37;6.50;;;;;;;;;;5044564;28;20221;-67
2023/04/15 01:33:38;;;;;;;10.20;6.37;;;;;;;;;;5038628;28;20216;-67
2023/04/15 01:36:05;;;;;;;10.47;6.40;;;;;;;;;;5039189;28;20198;-67
2023/04/15 01:38:32;;;;;;;9.38;6.30;;;;;;;;;;5039768;28;20200;-67
2023/04/15 01:40:58;;;;;;;11.75;6.25;;;;;;;;;;5046911;28;20247;-67
2023/04/15 01:43:24;;;;;;;8.75;6.07;;;;;;;;;;5044464;28;20263;-67
2023/04/15 01:45:49;;;;;;;11.38;6.65;;;;;;;;;;5045845;28;20197;-67
2023/04/15 01:48:15;;;;;;;8.82;5.60;;;;;;;;;;5045318;28;20276;-67
2023/04/15 01:50:42;;;;;;;12.00;6.47;;;;;;;;;;5042047;28;20618;-67
2023/04/15 01:53:07;;;;;;;10.65;6.38;;;;;;;;;;5042225;28;20189;-67
2023/04/15 01:55:33;;;;;;;11.80;6.57;;;;;;;;;;5038022;28;20511;-66
2023/04/15 01:57:58;;;;;;;12.33;6.67;;;;;;;;;;5039800;28;20697;-66
2023/04/15 02:00:23;;;;;;;10.90;6.82;;;;;;;;;;5047141;28;20248;-67
2023/04/15 02:02:49;;;;;;;12.55;7.43;;;;;;;;;;5048305;28;20209;-67
2023/04/15 02:05:15;;;;;;;11.17;7.00;;;;;;;;;;5047327;28;20280;-67
2023/04/15 02:07:42;;;;;;;10.30;6.93;;;;;;;;;;5050375;28;20610;-67
2023/04/15 02:10:08;;;;;;;11.32;6.60;;;;;;;;;;5046975;28;20268;-67
2023/04/15 02:12:33;;;;;;;15.17;7.20;;;;;;;;;;5050279;28;20273;-67
2023/04/15 02:14:59;;;;;;;11.27;7.50;;;;;;;;;;5041209;28;20284;-67
2023/04/15 02:17:24;;;;;;;10.23;7.33;;;;;;;;;;5048547;28;20212;-66
2023/04/15 02:19:50;;;;;;;17.63;7.90;;;;;;;;;;5045159;28;20193;-66
2023/04/15 02:22:17;;;;;;;11.97;7.70;;;;;;;;;;5048350;28;20272;-67
2023/04/15 02:24:44;;;;;;;12.97;7.50;;;;;;;;;;5041729;28;20212;-67
2023/04/15 02:27:10;;;;;;;11.57;7.67;;;;;;;;;;5043331;28;20287;-66
2023/04/15 02:29:35;;;;;;;12.18;7.72;;;;;;;;;;5040079;28;20241;-67
2023/04/15 02:32:01;;;;;;;10.57;7.57;;;;;;;;;;5048723;28;20622;-67
2023/04/15 02:34:26;;;;;;;12.75;7.35;;;;;;;;;;5034917;28;20197;-66
2023/04/15 02:36:56;;;;;;;12.35;7.97;;;;;;;;;;5043435;28;20204;-66
2023/04/15 02:39:21;;;;;;;13.53;7.33;;;;;;;;;;5046955;28;20198;-66
2023/04/15 02:41:50;;;;;;;10.53;7.13;;;;;;;;;;5039749;28;20580;-67
2023/04/15 02:44:19;;;;;;;10.43;7.20;;;;;;;;;;5038578;28;20232;-67
2023/04/15 02:46:47;;;;;;;11.77;7.07;;;;;;;;;;5038144;28;20608;-67
2023/04/15 02:49:13;;;;;;;11.53;7.00;;;;;;;;;;5033484;28;20186;-67
2023/04/15 02:51:38;;;;;;;11.93;7.57;;;;;;;;;;5039021;28;20650;-68
2023/04/15 02:54:04;;;;;;;11.00;7.43;;;;;;;;;;5048288;28;20216;-67
2023/04/15 02:56:29;;;;;;;11.37;7.63;;;;;;;;;;5041738;28;20194;-67
2023/04/15 02:58:55;;;;;;;10.70;7.03;;;;;;;;;;5047272;28;20193;-68
2023/04/15 03:01:21;;;;;;;12.40;7.40;;;;;;;;;;5043115;28;20295;-68
2023/04/15 03:03:46;;;;;;;14.53;7.73;;;;;;;;;;5041739;28;20529;-67
2023/04/15 03:06:11;;;;;;;9.87;7.77;;;;;;;;;;5046417;28;20629;-66
2023/04/15 03:08:37;;;;;;;12.40;7.57;;;;;;;;;;5044488;28;20185;-66
2023/04/15 03:11:03;;;;;;;12.47;7.63;;;;;;;;;;5042193;28;20224;-67
2023/04/15 03:13:28;;;;;;;15.10;8.03;;;;;;;;;;5041283;28;20190;-67
2023/04/15 03:15:54;;;;;;;11.20;6.93;;;;;;;;;;5037360;28;20714;-66
2023/04/15 03:18:19;;;;;;;14.27;8.30;;;;;;;;;;5044811;28;20224;-66
2023/04/15 03:20:45;;;;;;;13.47;8.33;;;;;;;;;;5042448;28;20554;-66
2023/04/15 03:23:10;;;;;;;12.93;8.13;;;;;;;;;;5044065;28;20221;-67
2023/04/15 03:25:36;;;;;;;12.40;7.77;;;;;;;;;;5043279;28;20181;-66
2023/04/15 03:28:02;;;;;;;12.03;7.40;;;;;;;;;;5044432;28;20185;-68
2023/04/15 03:30:28;;;;;;;16.67;9.10;;;;;;;;;;5047159;28;20293;-68
2023/04/15 03:32:53;;;;;;;13.10;8.17;;;;;;;;;;5045519;28;20234;-67
2023/04/15 03:35:19;;;;;;;14.30;7.70;;;;;;;;;;5032431;28;20186;-67
2023/04/15 03:37:44;;;;;;;12.90;7.43;;;;;;;;;;5038751;28;20186;-67
2023/04/15 03:40:10;;;;;;;13.00;8.13;;;;;;;;;;5029351;28;20197;-67
2023/04/15 03:42:35;;;;;;;12.00;7.87;;;;;;;;;;5042541;28;20243;-67
2023/04/15 03:45:01;;;;;;;12.93;8.23;;;;;;;;;;5043783;28;20228;-68
2023/04/15 03:47:26;;;;;;;14.47;8.67;;;;;;;;;;5040210;28;20251;-67
2023/04/15 03:49:51;;;;;;;13.83;8.33;;;;;;;;;;5042230;28;20202;-67
2023/04/15 03:52:17;;;;;;;12.87;8.90;;;;;;;;;;5041674;28;20235;-67
2023/04/15 03:54:42;;;;;;;13.07;7.87;;;;;;;;;;5034562;28;20526;-67
2023/04/15 03:57:07;;;;;;;15.37;9.20;;;;;;;;;;5035893;28;20277;-68
2023/04/15 03:59:33;;;;;;;14.60;8.73;;;;;;;;;;5030080;28;20205;-68
2023/04/15 04:01:58;;;;;;;15.63;9.20;;;;;;;;;;5039408;28;20624;-68
2023/04/15 04:04:24;;;;;;;18.10;9.83;;;;;;;;;;5042655;28;20208;-68
2023/04/15 04:06:49;;;;;;;18.30;8.97;;;;;;;;;;5036931;28;20232;-66
2023/04/15 04:09:15;;;;;;;14.97;8.27;;;;;;;;;;5046914;28;20185;-67
2023/04/15 04:11:40;;;;;;;13.63;8.20;;;;;;;;;;5041594;28;20194;-67
2023/04/15 04:14:05;;;;;;;14.37;8.30;;;;;;;;;;5040599;28;20286;-67
2023/04/15 04:16:31;;;;;;;13.13;9.10;;;;;;;;;;5040127;28;20204;-66
2023/04/15 04:18:56;;;;;;;13.97;9.87;;;;;;;;;;5036222;28;20637;-70
2023/04/15 04:21:22;;;;;;;14.13;8.97;;;;;;;;;;5040158;28;20508;-67
2023/04/15 04:23:47;;;;;;;18.43;9.10;;;;;;;;;;5044501;28;20193;-67
2023/04/15 04:26:12;;;;;;;15.77;9.13;;;;;;;;;;5044401;28;20240;-67
2023/04/15 04:28:39;;;;;;;12.63;8.90;;;;;;;;;;5040838;28;20190;-67
2023/04/15 04:31:06;;;;;;;18.50;9.60;;;;;;;;;;5042471;28;20233;-68
2023/04/15 04:33:31;;;;;;;14.83;9.07;;;;;;;;;;5041347;28;20660;-66
2023/04/15 04:35:57;;;;;;;18.97;10.53;;;;;;;;;;5032080;28;20211;-68
2023/04/15 04:38:22;;;;;;;18.67;9.70;;;;;;;;;;5036830;28;20671;-67
2023/04/15 04:40:48;;;;;;;17.17;10.93;;;;;;;;;;5045405;28;20190;-67
2023/04/15 04:43:14;;;;;;;14.57;9.87;;;;;;;;;;5043268;28;20205;-67
2023/04/15 04:45:40;;;;;;;18.43;10.30;;;;;;;;;;5039806;28;20251;-67
2023/04/15 04:48:07;;;;;;;16.97;10.83;;;;;;;;;;5032868;28;20196;-68
2023/04/15 04:50:33;;;;;;;17.83;11.60;;;;;;;;;;5037395;28;20276;-66
2023/04/15 04:52:59;;;;;;;22.23;12.33;;;;;;;;;;5039879;28;20532;-67
2023/04/15 04:55:26;;;;;;;22.20;12.43;;;;;;;;;;5038467;28;20201;-67
2023/04/15 04:57:51;;;;;;;23.47;13.77;;;;;;;;;;5035582;28;20202;-67
2023/04/15 05:00:17;;;;;;;21.43;14.00;;;;;;;;;;5030861;28;20217;-67
2023/04/15 05:02:42;;;;;;;25.33;14.83;;;;;;;;;;5036007;28;20209;-67
2023/04/15 05:05:09;;;;;;;27.90;15.80;;;;;;;;;;5045796;28;20193;-67
2023/04/15 05:07:34;;;;;;;26.23;15.33;;;;;;;;;;5040154;28;20189;-67
2023/04/15 05:09:59;;;;;;;25.43;15.00;;;;;;;;;;5030173;28;20623;-67
2023/04/15 05:12:25;;;;;;;25.77;15.57;;;;;;;;;;5035661;28;20227;-68
2023/04/15 05:14:51;;;;;;;24.03;14.77;;;;;;;;;;5032834;28;20628;-67
2023/04/15 05:17:16;;;;;;;25.63;15.07;;;;;;;;;;5031352;28;20518;-67
2023/04/15 05:19:41;;;;;;;28.13;16.33;;;;;;;;;;5028357;28;20202;-68
2023/04/15 05:22:07;;;;;;;28.23;15.70;;;;;;;;;;5042534;28;20249;-68
2023/04/15 05:24:32;;;;;;;29.40;16.43;;;;;;;;;;5043751;28;20185;-68
2023/04/15 05:26:58;;;;;;;27.50;16.87;;;;;;;;;;5044524;28;20280;-68
2023/04/15 05:29:23;;;;;;;23.03;16.03;;;;;;;;;;5033332;28;20237;-67
2023/04/15 05:31:48;;;;;;;28.57;16.70;;;;;;;;;;5045770;28;20303;-68
2023/04/15 05:34:15;;;;;;;24.87;16.57;;;;;;;;;;5043896;28;20194;-67
2023/04/15 05:36:41;;;;;;;26.87;17.47;;;;;;;;;;5046968;28;20629;-67
2023/04/15 05:39:06;;;;;;;29.97;16.90;;;;;;;;;;5049344;28;20185;-68
2023/04/15 05:41:31;;;;;;;26.60;17.47;;;;;;;;;;5043067;28;20201;-68
2023/04/15 05:43:57;;;;;;;29.27;17.93;;;;;;;;;;5050082;28;20264;-68
2023/04/15 05:46:22;;;;;;;28.20;17.40;;;;;;;;;;5033325;28;20360;-68
2023/04/15 05:48:48;;;;;;;32.20;18.17;;;;;;;;;;5038046;28;20453;-68
2023/04/15 05:51:13;;;;;;;32.13;18.57;;;;;;;;;;5029957;28;20221;-68
2023/04/15 05:53:40;;;;;;;31.63;18.30;;;;;;;;;;5051284;28;20518;-68
2023/04/15 05:56:06;;;;;;;27.87;17.70;;;;;;;;;;5037713;28;20539;-69
2023/04/15 05:58:31;;;;;;;34.37;19.07;;;;;;;;;;5039958;28;20216;-68
2023/04/15 06:00:57;;;;;;;29.63;18.53;;;;;;;;;;5037511;28;20337;-68
2023/04/15 06:03:22;;;;;;;30.83;19.03;;;;;;;;;;5042500;28;20285;-67
2023/04/15 06:05:48;;;;;;;34.27;19.30;;;;;;;;;;5042329;28;20194;-68
2023/04/15 06:08:13;;;;;;;31.63;18.27;;;;;;;;;;5043064;28;20208;-68
2023/04/15 06:10:39;;;;;;;30.57;19.03;;;;;;;;;;5031809;28;20192;-69
2023/04/15 06:13:04;;;;;;;31.37;19.50;;;;;;;;;;5042497;28;20336;-69
2023/04/15 06:15:30;;;;;;;29.37;18.53;;;;;;;;;;5031872;28;20553;-68
2023/04/15 06:17:56;;;;;;;30.37;19.10;;;;;;;;;;5049123;28;20203;-69
2023/04/15 06:20:21;;;;;;;31.47;19.20;;;;;;;;;;5032525;28;20501;-67
2023/04/15 06:22:47;;;;;;;31.13;18.30;;;;;;;;;;5035732;28;20220;-67
2023/04/15 06:25:12;;;;;;;31.77;18.40;;;;;;;;;;5036505;28;20193;-67
2023/04/15 06:27:38;;;;;;;29.53;17.67;;;;;;;;;;5031695;28;20624;-67
2023/04/15 06:30:05;;;;;;;31.93;17.77;;;;;;;;;;5041366;28;20276;-67
2023/04/15 06:32:31;;;;;;;28.52;17.25;;;;;;;;;;5041439;28;20185;-67
2023/04/15 06:34:57;;;;;;;25.58;16.45;;;;;;;;;;5040370;28;20269;-68
2023/04/15 06:37:22;;;;;;;23.67;16.47;;;;;;;;;;5038693;28;20255;-68
2023/04/15 06:39:47;;;;;;;23.52;15.40;;;;;;;;;;5030697;28;20632;-68
2023/04/15 06:42:13;;;;;;;25.77;16.10;;;;;;;;;;5044900;28;20217;-68
2023/04/15 06:44:38;;;;;;;23.80;15.18;;;;;;;;;;5038757;28;20193;-68
2023/04/15 06:47:04;;;;;;;26.52;16.90;;;;;;;;;;5043323;28;20672;-68
2023/04/15 06:49:29;;;;;;;25.95;15.02;;;;;;;;;;5029208;28;20186;-68
2023/04/15 06:51:55;;;;;;;23.83;15.40;;;;;;;;;;5039028;28;20189;-68
2023/04/15 06:54:20;;;;;;;21.90;14.15;;;;;;;;;;5040216;28;20224;-68
2023/04/15 06:56:46;;;;;;;24.60;14.80;;;;;;;;;;5038703;28;20193;-68
2023/04/15 06:59:13;;;;;;;25.23;14.63;;;;;;;;;;5031234;28;20182;-69
2023/04/15 07:01:39;;;;;;;22.30;14.80;;;;;;;;;;5042825;28;20221;-69
2023/04/15 07:04:05;;;;;;;20.67;13.43;;;;;;;;;;5036687;28;20186;-68
2023/04/15 07:06:31;;;;;;;22.63;14.30;;;;;;;;;;5035026;28;20654;-68
2023/04/15 07:08:57;;;;;;;23.38;13.93;;;;;;;;;;5042496;28;20194;-68
2023/04/15 07:11:22;;;;;;;20.85;13.15;;;;;;;;;;5034785;28;20196;-68
2023/04/15 07:13:47;;;;;;;20.73;12.52;;;;;;;;;;5043507;28;20540;-68
2023/04/15 07:16:13;;;;;;;19.55;12.40;;;;;;;;;;5031131;28;20292;-67
2023/04/15 07:18:38;;;;;;;22.48;13.48;;;;;;;;;;5041660;28;20193;-68
2023/04/15 07:21:04;;;;;;;19.02;11.80;;;;;;;;;;5047349;28;20193;-68
2023/04/15 07:23:30;;;;;;;19.05;12.85;;;;;;;;;;5040578;28;20253;-68
2023/04/15 07:25:56;;;;;;;23.33;12.93;;;;;;;;;;5044684;28;20793;-70
2023/04/15 07:28:21;;;;;;;20.02;12.38;;;;;;;;;;5036585;28;20197;-69
2023/04/15 07:30:47;;;;;;;21.58;12.65;;;;;;;;;;5035347;28;20325;-70
2023/04/15 07:33:13;;;;;;;20.60;12.55;;;;;;;;;;5042997;28;20309;-71
2023/04/15 07:35:38;;;;;;;20.88;13.10;;;;;;;;;;5047981;28;20220;-70
2023/04/15 07:38:03;;;;;;;21.73;13.13;;;;;;;;;;5046799;28;20196;-72
2023/04/15 07:40:29;;;;;;;22.10;14.13;;;;;;;;;;5045121;28;20193;-71
2023/04/15 07:42:57;;;;;;;21.73;14.20;;;;;;;;;;5046098;28;20248;-72
2023/04/15 07:45:23;;;;;;;20.63;14.15;;;;;;;;;;5045235;28;20185;-69
2023/04/15 07:47:50;;;;;;;22.50;13.82;;;;;;;;;;5047871;28;20519;-70
2023/04/15 07:50:16;;;;;;;23.08;14.60;;;;;;;;;;5032960;28;20338;-70
2023/04/15 07:52:41;;;;;;;21.73;14.13;;;;;;;;;;5043158;28;20193;-70
2023/04/15 07:55:08;;;;;;;18.60;12.75;;;;;;;;;;5038436;28;20731;-69
2023/04/15 07:57:34;;;;;;;26.02;14.18;;;;;;;;;;5040376;28;20178;-70
2023/04/15 08:00:00;;;;;;;17.15;12.18;;;;;;;;;;5040354;28;20200;-70
2023/04/15 08:02:26;;;;;;;18.17;12.52;;;;;;;;;;5038218;28;20237;-70
2023/04/15 08:04:52;;;;;;;17.48;11.77;;;;;;;;;;5039724;28;20604;-69
2023/04/15 08:07:18;;;;;;;18.33;11.23;;;;;;;;;;5037819;28;20564;-69
2023/04/15 08:09:43;;;;;;;16.75;11.10;;;;;;;;;;5044471;28;20290;-70
2023/04/15 08:12:12;;;;;;;14.55;10.20;;;;;;;;;;5034563;28;20311;-71
2023/04/15 08:14:37;;;;;;;17.20;8.98;;;;;;;;;;5042802;28;20799;-74
2023/04/15 08:17:03;;;;;;;14.30;10.18;;;;;;;;;;5038948;28;20189;-71
2023/04/15 08:19:29;;;;;;;15.90;10.95;;;;;;;;;;5038180;28;20205;-69
2023/04/15 08:21:54;;;;;;;17.10;9.95;;;;;;;;;;5032310;28;20811;-70
2023/04/15 08:24:20;;;;;;;15.00;9.35;;;;;;;;;;5035985;28;20182;-71
2023/04/15 08:26:46;;;;;;;13.65;9.48;;;;;;;;;;5033222;28;20649;-71
2023/04/15 08:29:11;;;;;;;12.15;7.82;;;;;;;;;;5035059;28;20197;-71
2023/04/15 08:31:37;;;;;;;11.88;8.18;;;;;;;;;;5045168;28;20204;-71
2023/04/15 08:34:02;;;;;;;11.05;8.18;;;;;;;;;;5043843;28;20285;-70
2023/04/15 08:36:28;;;;;;;12.48;7.78;;;;;;;;;;5043108;28;20284;-71
2023/04/15 08:38:53;;;;;;;12.63;7.32;;;;;;;;;;5032453;28;20372;-71
2023/04/15 08:41:22;;;;;;;12.10;7.63;;;;;;;;;;5040913;28;20182;-69
2023/04/15 08:44:03;;;;;;;11.70;7.80;;;;;;;;;;5043036;28;20217;-70
2023/04/15 08:46:30;;;;;;;11.27;6.53;;;;;;;;;;5034420;28;20190;-72
2023/04/15 08:48:57;;;;;;;11.50;6.70;;;;;;;;;;5037288;28;20328;-74
2023/04/15 08:51:23;;;;;;;9.32;6.40;;;;;;;;;;5023486;28;20190;-73
2023/04/15 08:53:49;;;;;;;9.25;6.68;;;;;;;;;;5042652;28;20761;-71
2023/04/15 08:56:15;;;;;;;10.80;6.45;;;;;;;;;;5035166;28;20202;-71
2023/04/15 08:58:43;;;;;;;9.82;6.65;;;;;;;;;;5032775;28;20270;-72
2023/04/15 09:01:11;;;;;;;11.82;6.95;;;;;;;;;;5038331;28;20220;-72
2023/04/15 09:03:37;;;;;;;10.00;6.00;;;;;;;;;;5040445;28;20198;-71
2023/04/15 09:06:04;;;;;;;8.20;6.15;;;;;;;;;;5031573;28;20712;-71
2023/04/15 09:08:30;;;;;;;8.50;5.80;;;;;;;;;;5026915;28;20194;-70
2023/04/15 09:10:55;;;;;;;8.00;5.53;;;;;;;;;;5025536;28;20568;-70
2023/04/15 09:13:21;;;;;;;10.35;5.75;;;;;;;;;;5043500;28;20184;-70
2023/04/15 09:15:47;;;;;;;9.60;5.47;;;;;;;;;;5033523;28;20350;-70
2023/04/15 09:18:25;;;;;;;9.77;5.18;;;;;;;;;;5043726;28;20246;-71
2023/04/15 09:20:52;;;;;;;7.97;5.20;;;;;;;;;;5027734;28;20190;-70
2023/04/15 09:23:17;;;;;;;9.75;6.07;;;;;;;;;;5036158;28;20216;-70
2023/04/15 09:25:43;;;;;;;7.60;5.25;;;;;;;;;;5029194;28;20200;-70
2023/04/15 09:28:10;;;;;;;8.35;5.57;;;;;;;;;;5036271;28;20177;-71
2023/04/15 09:30:36;;;;;;;7.07;5.22;;;;;;;;;;5042843;28;20338;-70
2023/04/15 09:33:06;;;;;;;9.00;5.28;;;;;;;;;;5034516;28;20670;-70
2023/04/15 09:35:33;;;;;;;6.63;4.47;;;;;;;;;;5047216;28;20262;-69
2023/04/15 09:38:06;;;;;;;10.00;4.95;;;;;;;;;;5044505;28;20525;-70
2023/04/15 09:40:39;;;;;;;9.95;5.30;;;;;;;;;;5036457;28;20198;-70
2023/04/15 09:43:06;;;;;;;7.57;4.93;;;;;;;;;;5032742;28;20591;-72
2023/04/15 09:45:33;;;;;;;7.90;4.60;;;;;;;;;;5037482;28;20265;-71
2023/04/15 09:48:19;;;;;;;9.80;4.20;;;;;;;;;;5042581;28;20213;-70
2023/04/15 09:50:45;;;;;;;6.40;4.05;;;;;;;;;;5053079;28;20626;-71
2023/04/15 09:53:16;;;;;;;8.02;4.60;;;;;;;;;;5041727;28;20196;-70
2023/04/15 09:55:48;;;;;;;7.82;4.85;;;;;;;;;;5041861;28;20201;-69
2023/04/15 09:58:22;;;;;;;8.38;4.65;;;;;;;;;;5043954;28;20669;-69
2023/04/15 10:00:49;;;;;;;6.93;4.28;;;;;;;;;;5043580;28;20263;-70
2023/04/15 10:03:19;;;;;;;6.82;4.53;;;;;;;;;;5037606;28;20425;-70
2023/04/15 10:05:46;;;;;;;7.75;4.43;;;;;;;;;;5042519;28;20617;-71
2023/04/15 10:08:12;;;;;;;7.40;4.25;;;;;;;;;;5040680;28;20325;-72
2023/04/15 10:10:38;;;;;;;6.07;3.47;;;;;;;;;;5046342;28;20209;-71
2023/04/15 10:13:04;;;;;;;7.45;3.83;;;;;;;;;;5038852;28;20289;-70
2023/04/15 10:15:32;;;;;;;9.60;3.58;;;;;;;;;;5032884;28;20192;-70
2023/04/15 10:18:00;;;;;;;7.15;3.90;;;;;;;;;;5043127;28;20217;-69
2023/04/15 10:20:26;;;;;;;6.25;3.78;;;;;;;;;;5043668;28;20189;-70
2023/04/15 10:22:52;;;;;;;6.75;3.58;;;;;;;;;;5045371;28;20216;-70
2023/04/15 10:25:18;;;;;;;6.78;3.17;;;;;;;;;;5040105;28;20653;-70
2023/04/15 10:27:44;;;;;;;7.20;3.22;;;;;;;;;;5045427;28;20247;-69
2023/04/15 10:30:10;;;;;;;6.82;3.13;;;;;;;;;;5044128;28;20433;-70
2023/04/15 10:32:37;;;;;;;4.90;2.63;;;;;;;;;;5046731;28;20568;-70
2023/04/15 10:35:04;;;;;;;3.58;2.72;;;;;;;;;;5040294;28;20226;-72
2023/04/15 10:37:37;;;;;;;5.20;2.65;;;;;;;;;;5047508;28;20190;-73
2023/04/15 10:40:26;;;;;;;5.28;2.80;;;;;;;;;;5049706;28;20190;-68
2023/04/15 10:42:55;;;;;;;5.88;2.50;;;;;;;;;;5041747;28;20217;-71
2023/04/15 10:45:21;;;;;;;4.68;2.53;;;;;;;;;;5039084;28;20201;-68
2023/04/15 10:47:53;;;;;;;3.40;2.22;;;;;;;;;;5033601;28;20624;-69
2023/04/15 10:50:18;;;;;;;4.70;2.30;;;;;;;;;;5038142;28;20536;-69
2023/04/15 10:52:44;;;;;;;2.28;2.08;;;;;;;;;;5045913;28;20188;-70
2023/04/15 10:55:09;;;;;;;4.22;2.42;;;;;;;;;;5045769;28;20620;-70
2023/04/15 10:57:37;;;;;;;4.68;2.50;;;;;;;;;;5034175;28;20189;-69
2023/04/15 11:00:10;;;;;;;4.15;2.40;;;;;;;;;;5044948;28;20621;-75
2023/04/15 11:02:54;;;;;;;5.32;2.50;;;;;;;;;;5046380;28;20540;-70
2023/04/15 11:05:20;;;;;;;6.13;2.30;;;;;;;;;;5037591;28;20221;-70
2023/04/15 11:07:47;;;;;;;5.05;2.03;;;;;;;;;;5030705;28;20186;-71
2023/04/15 11:10:13;;;;;;;4.28;2.42;;;;;;;;;;5037863;28;20528;-69
2023/04/15 11:12:39;;;;;;;4.50;2.13;;;;;;;;;;5040560;28;20192;-70
2023/04/15 11:15:26;;;;;;;3.03;2.00;;;;;;;;;;5048434;28;20189;-69
2023/04/15 11:17:52;;;;;;;4.18;2.08;;;;;;;;;;5034895;28;20217;-72
2023/04/15 11:20:18;;;;;;;4.45;2.40;;;;;;;;;;5047977;28;20185;-69
2023/04/15 11:22:47;;;;;;;2.95;2.20;;;;;;;;;;5048842;28;20244;-71
2023/04/15 11:25:27;;;;;;;3.20;1.83;;;;;;;;;;5044497;28;20224;-70
2023/04/15 11:27:54;;;;;;;2.25;1.73;;;;;;;;;;5044096;28;20249;-68
2023/04/15 11:30:21;;;;;;;6.13;2.28;;;;;;;;;;5047983;28;20378;-67
2023/04/15 11:32:50;;;;;;;2.15;1.90;;;;;;;;;;5035743;28;20190;-68
2023/04/15 11:35:19;;;;;;;2.42;1.65;;;;;;;;;;5030111;28;20599;-68
2023/04/15 11:37:45;;;;;;;3.10;1.98;;;;;;;;;;5043456;28;20189;-69
2023/04/15 11:40:12;;;;;;;2.83;2.00;;;;;;;;;;5047679;28;20194;-68
2023/04/15 11:42:37;;;;;;;4.10;1.70;;;;;;;;;;5034088;28;20221;-69
2023/04/15 11:45:08;;;;;;;2.90;1.80;;;;;;;;;;5046462;28;20181;-67
2023/04/15 11:47:37;;;;;;;3.65;1.73;;;;;;;;;;5036133;28;20193;-68
2023/04/15 11:50:20;;;;;;;3.33;1.25;;;;;;;;;;5037955;28;20757;-68
2023/04/15 11:52:55;;;;;;;4.40;1.70;;;;;;;;;;5045379;28;20185;-69
2023/04/15 11:55:22;;;;;;;3.65;2.35;;;;;;;;;;5033785;28;20236;-69
2023/04/15 11:58:15;;;;;;;4.03;2.10;;;;;;;;;;5033832;28;20186;-71
2023/04/15 12:00:52;;;;;;;4.15;1.75;;;;;;;;;;5034459;28;20819;-69
2023/04/15 12:03:24;;;;;;;3.10;1.75;;;;;;;;;;5041063;28;20208;-69
2023/04/15 12:06:13;;;;;;;4.00;1.77;;;;;;;;;;5037820;28;20524;-69
2023/04/15 12:08:54;;;;;;;3.58;1.77;;;;;;;;;;5041107;28;20276;-74
2023/04/15 12:11:25;;;;;;;2.55;1.83;;;;;;;;;;5043158;28;20199;-70
2023/04/15 12:13:55;;;;;;;4.13;1.90;;;;;;;;;;5038914;28;20269;-70
2023/04/15 12:16:22;;;;;;;4.38;2.35;;;;;;;;;;5040202;28;20714;-68
2023/04/15 12:18:55;;;;;;;3.63;2.10;;;;;;;;;;5027133;28;20592;-70
2023/04/15 12:21:22;;;;;;;4.43;2.30;;;;;;;;;;5047268;28;20267;-69
2023/04/15 12:23:53;;;;;;;2.70;1.92;;;;;;;;;;5037038;28;20214;-70
2023/04/15 12:26:26;;;;;;;4.30;1.90;;;;;;;;;;5036371;28;20201;-69
2023/04/15 12:28:58;;;;;;;5.72;2.05;;;;;;;;;;5039224;28;20431;-69
2023/04/15 12:31:23;;;;;;;5.45;1.98;;;;;;;;;;5027904;28;20225;-70
2023/04/15 12:33:49;;;;;;;2.75;1.75;;;;;;;;;;5031210;28;20236;-69
2023/04/15 12:36:15;;;;;;;3.35;1.60;;;;;;;;;;5032215;28;20277;-69
2023/04/15 12:38:40;;;;;;;5.93;1.80;;;;;;;;;;5035774;28;20222;-68
2023/04/15 12:41:06;;;;;;;2.78;1.50;;;;;;;;;;5029574;28;20720;-70
2023/04/15 12:43:31;;;;;;;3.15;1.67;;;;;;;;;;5036568;28;20435;-70
2023/04/15 12:45:57;;;;;;;3.28;1.55;;;;;;;;;;5045280;28;20246;-70
2023/04/15 12:48:22;;;;;;;4.00;1.35;;;;;;;;;;5045452;28;20189;-69
2023/04/15 12:50:47;;;;;;;4.28;1.73;;;;;;;;;;5038456;28;20195;-70
2023/04/15 12:53:13;;;;;;;2.22;1.80;;;;;;;;;;5036729;28;20675;-68
2023/04/15 12:55:38;;;;;;;2.95;1.50;;;;;;;;;;5031578;28;20229;-72
2023/04/15 12:58:03;;;;;;;3.85;1.45;;;;;;;;;;5029557;28;20363;-70
2023/04/15 13:00:29;;;;;;;4.00;1.60;;;;;;;;;;5029740;28;20619;-70
2023/04/15 13:02:54;;;;;;;4.93;1.85;;;;;;;;;;5024609;28;20209;-69
2023/04/15 13:05:29;;;;;;;3.69;1.71;;;;;;;;;;4664197;28;10002907;-68
2023/04/15 13:07:54;;;;;;;5.30;1.95;;;;;;;;;;5033083;28;20439;-68
2023/04/15 13:10:21;;;;;;;2.88;1.60;;;;;;;;;;5038027;28;20185;-70
2023/04/15 13:12:49;;;;;;;4.30;1.75;;;;;;;;;;5031596;28;20771;-69
2023/04/15 13:15:18;;;;;;;4.53;1.98;;;;;;;;;;5040225;28;20281;-70
2023/04/15 13:17:43;;;;;;;4.05;1.80;;;;;;;;;;5029975;28;20190;-69
2023/04/15 13:20:09;;;;;;;5.53;2.08;;;;;;;;;;5039195;28;20722;-68
2023/04/15 13:22:34;;;;;;;4.15;2.10;;;;;;;;;;5041434;28;20217;-69
2023/04/15 13:25:00;;;;;;;5.53;2.25;;;;;;;;;;5040188;28;20929;-68
2023/04/15 13:27:26;;;;;;;5.93;2.05;;;;;;;;;;5037784;28;20213;-68
2023/04/15 13:29:51;;;;;;;7.32;2.08;;;;;;;;;;5036448;28;20232;-70
2023/04/15 13:32:17;;;;;;;4.00;1.73;;;;;;;;;;5034461;28;20181;-69
2023/04/15 13:34:42;;;;;;;5.47;2.10;;;;;;;;;;5033722;28;20193;-69
2023/04/15 13:37:08;;;;;;;5.75;1.77;;;;;;;;;;5031887;28;20221;-68
2023/04/15 13:39:34;;;;;;;5.63;2.00;;;;;;;;;;5023933;28;20183;-68
2023/04/15 13:41:59;;;;;;;6.15;1.90;;;;;;;;;;5040038;28;20182;-69
2023/04/15 13:44:25;;;;;;;5.53;2.13;;;;;;;;;;5042937;28;20562;-70
2023/04/15 13:46:51;;;;;;;6.45;2.45;;;;;;;;;;5041185;28;20186;-69
2023/04/15 13:49:16;;;;;;;6.68;2.10;;;;;;;;;;5031484;28;20273;-69
2023/04/15 13:51:41;;;;;;;7.20;2.25;;;;;;;;;;5040077;28;20228;-71
2023/04/15 13:54:07;;;;;;;4.85;1.88;;;;;;;;;;5036115;28;20214;-69
2023/04/15 13:56:32;;;;;;;4.35;1.65;;;;;;;;;;5036551;28;20998;-69
2023/04/15 13:59:00;;;;;;;4.25;1.52;;;;;;;;;;5033784;28;20209;-72
2023/04/15 14:01:26;;;;;;;3.80;1.70;;;;;;;;;;5042511;28;20222;-68
2023/04/15 14:03:52;;;;;;;4.15;1.98;;;;;;;;;;5042397;28;20201;-69
2023/04/15 14:06:17;;;;;;;6.45;2.05;;;;;;;;;;5042559;28;20201;-69
2023/04/15 14:08:42;;;;;;;5.10;2.15;;;;;;;;;;5034596;28;20197;-71
2023/04/15 14:11:08;;;;;;;5.63;2.08;;;;;;;;;;5031498;28;20496;-68
2023/04/15 14:13:33;;;;;;;6.13;1.85;;;;;;;;;;5038342;28;20199;-70
2023/04/15 14:15:59;;;;;;;3.55;1.52;;;;;;;;;;5047164;28;20276;-70
2023/04/15 14:18:25;;;;;;;7.57;2.38;;;;;;;;;;5040171;28;20198;-68
2023/04/15 14:20:50;;;;;;;6.07;1.92;;;;;;;;;;5045353;28;20295;-68
2023/04/15 14:23:16;;;;;;;5.18;1.77;;;;;;;;;;5043567;28;20205;-69
2023/04/15 14:25:41;;;;;;;5.18;1.30;;;;;;;;;;5046062;28;20189;-70
2023/04/15 14:28:06;;;;;;;6.40;1.95;;;;;;;;;;5047303;28;20197;-69